sensor_id;sensor_type;location;lat;lon;timestamp;P1;durP1;ratioP1;P2;durP2;ratioP2
21593;SDS011;10959;51.328;7.322;2022-10-01T00:02:09;3.73;;;3.30;;
21593;SDS011;10959;51.328;7.322;2022-10-01T00:04:36;4.53;;;2.67;;
21593;SDS011;10959;51.328;7.322;2022-10-01T00:07:03;3.47;;;3.17;;
21593;SDS011;10959;51.328;7.322;2022-10-01T00:09:33;4.30;;;3.50;;
21593;SDS011;10959;51.328;7.322;2022-10-01T00:12:00;2.97;;;2.70;;
21593;SDS011;10959;51.328;7.322;2022-10-01T00:14:28;3.37;;;3.00;;
21593;SDS011;10959;51.328;7.322;2022-10-01T00:16:55;3.47;;;3.17;;
21593;SDS011;10959;51.328;7.322;2022-10-01T00:19:22;3.13;;;2.90;;
21593;SDS011;10959;51.328;7.322;2022-10-01T00:21:48;3.70;;;3.10;;
21593;SDS011;10959;51.328;7.322;2022-10-01T00:24:15;3.43;;;2.80;;
21593;SDS011;10959;51.328;7.322;2022-10-01T00:26:41;4.00;;;2.90;;
21593;SDS011;10959;51.328;7.322;2022-10-01T00:29:10;4.17;;;3.20;;
21593;SDS011;10959;51.328;7.322;2022-10-01T00:31:40;5.37;;;3.53;;
21593;SDS011;10959;51.328;7.322;2022-10-01T00:34:08;3.40;;;3.00;;
21593;SDS011;10959;51.328;7.322;2022-10-01T00:36:36;3.37;;;2.53;;
21593;SDS011;10959;51.328;7.322;2022-10-01T00:39:03;4.53;;;2.80;;
21593;SDS011;10959;51.328;7.322;2022-10-01T00:41:30;4.50;;;3.10;;
21593;SDS011;10959;51.328;7.322;2022-10-01T00:43:59;3.93;;;2.97;;
21593;SDS011;10959;51.328;7.322;2022-10-01T00:46:28;3.33;;;3.03;;
21593;SDS011;10959;51.328;7.322;2022-10-01T00:49:06;3.20;;;2.90;;
21593;SDS011;10959;51.328;7.322;2022-10-01T00:51:36;3.63;;;2.90;;
21593;SDS011;10959;51.328;7.322;2022-10-01T00:54:07;4.70;;;2.40;;
21593;SDS011;10959;51.328;7.322;2022-10-01T00:56:37;4.57;;;2.73;;
21593;SDS011;10959;51.328;7.322;2022-10-01T00:59:04;3.23;;;2.73;;
21593;SDS011;10959;51.328;7.322;2022-10-01T01:01:32;3.40;;;2.87;;
21593;SDS011;10959;51.328;7.322;2022-10-01T01:04:01;4.50;;;2.83;;
21593;SDS011;10959;51.328;7.322;2022-10-01T01:06:30;4.77;;;3.40;;
21593;SDS011;10959;51.328;7.322;2022-10-01T01:08:56;4.50;;;3.07;;
21593;SDS011;10959;51.328;7.322;2022-10-01T01:11:24;4.77;;;3.17;;
21593;SDS011;10959;51.328;7.322;2022-10-01T01:14:00;3.90;;;3.50;;
21593;SDS011;10959;51.328;7.322;2022-10-01T01:16:32;3.93;;;3.27;;
21593;SDS011;10959;51.328;7.322;2022-10-01T01:19:07;4.70;;;3.57;;
21593;SDS011;10959;51.328;7.322;2022-10-01T01:21:42;4.50;;;3.37;;
21593;SDS011;10959;51.328;7.322;2022-10-01T01:27:07;3.67;;;3.37;;
21593;SDS011;10959;51.328;7.322;2022-10-01T01:29:45;4.03;;;3.67;;
21593;SDS011;10959;51.328;7.322;2022-10-01T01:32:18;4.43;;;4.03;;
21593;SDS011;10959;51.328;7.322;2022-10-01T01:34:50;5.03;;;3.90;;
21593;SDS011;10959;51.328;7.322;2022-10-01T01:37:22;4.53;;;3.73;;
21593;SDS011;10959;51.328;7.322;2022-10-01T01:39:51;4.30;;;3.90;;
21593;SDS011;10959;51.328;7.322;2022-10-01T01:42:22;3.90;;;3.57;;
21593;SDS011;10959;51.328;7.322;2022-10-01T01:44:53;3.97;;;3.67;;
21593;SDS011;10959;51.328;7.322;2022-10-01T01:47:23;4.27;;;3.70;;
21593;SDS011;10959;51.328;7.322;2022-10-01T01:49:58;4.10;;;3.70;;
21593;SDS011;10959;51.328;7.322;2022-10-01T01:52:26;4.60;;;4.20;;
21593;SDS011;10959;51.328;7.322;2022-10-01T01:54:54;4.47;;;4.07;;
21593;SDS011;10959;51.328;7.322;2022-10-01T01:57:22;5.73;;;4.73;;
21593;SDS011;10959;51.328;7.322;2022-10-01T01:59:49;3.80;;;3.47;;
21593;SDS011;10959;51.328;7.322;2022-10-01T02:02:17;5.23;;;4.10;;
21593;SDS011;10959;51.328;7.322;2022-10-01T02:04:47;4.00;;;3.70;;
21593;SDS011;10959;51.328;7.322;2022-10-01T02:10:28;4.50;;;4.10;;
21593;SDS011;10959;51.328;7.322;2022-10-01T02:13:10;5.17;;;4.40;;
21593;SDS011;10959;51.328;7.322;2022-10-01T02:15:52;4.97;;;4.57;;
21593;SDS011;10959;51.328;7.322;2022-10-01T02:18:28;5.13;;;4.33;;
21593;SDS011;10959;51.328;7.322;2022-10-01T02:21:00;4.37;;;3.97;;
21593;SDS011;10959;51.328;7.322;2022-10-01T02:23:33;4.17;;;3.77;;
21593;SDS011;10959;51.328;7.322;2022-10-01T02:26:06;4.80;;;3.80;;
21593;SDS011;10959;51.328;7.322;2022-10-01T02:28:36;4.80;;;3.87;;
21593;SDS011;10959;51.328;7.322;2022-10-01T02:31:06;4.80;;;4.40;;
21593;SDS011;10959;51.328;7.322;2022-10-01T02:33:35;3.97;;;3.60;;
21593;SDS011;10959;51.328;7.322;2022-10-01T02:36:02;4.50;;;4.10;;
21593;SDS011;10959;51.328;7.322;2022-10-01T02:38:31;4.50;;;4.03;;
21593;SDS011;10959;51.328;7.322;2022-10-01T02:41:01;3.70;;;3.40;;
21593;SDS011;10959;51.328;7.322;2022-10-01T02:43:31;4.27;;;3.87;;
21593;SDS011;10959;51.328;7.322;2022-10-01T02:46:01;4.43;;;3.63;;
21593;SDS011;10959;51.328;7.322;2022-10-01T02:48:37;4.53;;;3.23;;
21593;SDS011;10959;51.328;7.322;2022-10-01T02:51:05;3.47;;;3.20;;
21593;SDS011;10959;51.328;7.322;2022-10-01T02:53:48;3.40;;;3.17;;
21593;SDS011;10959;51.328;7.322;2022-10-01T02:56:20;4.00;;;3.60;;
21593;SDS011;10959;51.328;7.322;2022-10-01T02:59:01;3.70;;;3.40;;
21593;SDS011;10959;51.328;7.322;2022-10-01T03:01:31;3.80;;;3.50;;
21593;SDS011;10959;51.328;7.322;2022-10-01T03:03:59;4.50;;;4.10;;
21593;SDS011;10959;51.328;7.322;2022-10-01T03:06:26;3.90;;;3.60;;
21593;SDS011;10959;51.328;7.322;2022-10-01T03:08:53;4.17;;;3.63;;
21593;SDS011;10959;51.328;7.322;2022-10-01T03:11:21;3.93;;;3.63;;
21593;SDS011;10959;51.328;7.322;2022-10-01T03:13:48;3.97;;;3.63;;
21593;SDS011;10959;51.328;7.322;2022-10-01T03:16:14;4.20;;;3.80;;
21593;SDS011;10959;51.328;7.322;2022-10-01T03:18:41;4.03;;;3.73;;
21593;SDS011;10959;51.328;7.322;2022-10-01T03:21:09;3.37;;;3.07;;
21593;SDS011;10959;51.328;7.322;2022-10-01T03:23:36;3.80;;;3.40;;
21593;SDS011;10959;51.328;7.322;2022-10-01T03:26:02;3.87;;;3.57;;
21593;SDS011;10959;51.328;7.322;2022-10-01T03:28:29;3.47;;;3.17;;
21593;SDS011;10959;51.328;7.322;2022-10-01T03:31:03;3.03;;;2.73;;
21593;SDS011;10959;51.328;7.322;2022-10-01T03:33:30;3.37;;;3.10;;
21593;SDS011;10959;51.328;7.322;2022-10-01T03:35:57;3.90;;;3.53;;
21593;SDS011;10959;51.328;7.322;2022-10-01T03:38:25;3.27;;;3.07;;
21593;SDS011;10959;51.328;7.322;2022-10-01T03:40:51;3.70;;;3.03;;
21593;SDS011;10959;51.328;7.322;2022-10-01T03:43:19;3.40;;;3.10;;
21593;SDS011;10959;51.328;7.322;2022-10-01T03:45:46;3.00;;;2.77;;
21593;SDS011;10959;51.328;7.322;2022-10-01T03:48:12;3.53;;;3.00;;
21593;SDS011;10959;51.328;7.322;2022-10-01T03:50:39;3.50;;;3.20;;
21593;SDS011;10959;51.328;7.322;2022-10-01T03:53:05;3.43;;;3.13;;
21593;SDS011;10959;51.328;7.322;2022-10-01T03:55:33;4.37;;;3.40;;
21593;SDS011;10959;51.328;7.322;2022-10-01T03:58:00;3.50;;;3.20;;
21593;SDS011;10959;51.328;7.322;2022-10-01T04:00:27;3.40;;;2.97;;
21593;SDS011;10959;51.328;7.322;2022-10-01T04:02:54;3.20;;;3.00;;
21593;SDS011;10959;51.328;7.322;2022-10-01T04:05:20;3.63;;;3.10;;
21593;SDS011;10959;51.328;7.322;2022-10-01T04:07:49;4.47;;;3.20;;
21593;SDS011;10959;51.328;7.322;2022-10-01T04:10:16;3.10;;;2.80;;
21593;SDS011;10959;51.328;7.322;2022-10-01T04:12:44;2.97;;;2.77;;
21593;SDS011;10959;51.328;7.322;2022-10-01T04:15:11;2.83;;;2.63;;
21593;SDS011;10959;51.328;7.322;2022-10-01T04:17:37;2.50;;;2.30;;
21593;SDS011;10959;51.328;7.322;2022-10-01T04:20:04;2.80;;;2.60;;
21593;SDS011;10959;51.328;7.322;2022-10-01T04:22:34;3.13;;;2.73;;
21593;SDS011;10959;51.328;7.322;2022-10-01T04:25:04;3.17;;;2.27;;
21593;SDS011;10959;51.328;7.322;2022-10-01T04:27:31;3.13;;;2.37;;
21593;SDS011;10959;51.328;7.322;2022-10-01T04:29:59;2.60;;;2.40;;
21593;SDS011;10959;51.328;7.322;2022-10-01T04:32:25;2.60;;;2.33;;
21593;SDS011;10959;51.328;7.322;2022-10-01T04:34:52;3.17;;;2.30;;
21593;SDS011;10959;51.328;7.322;2022-10-01T04:37:18;2.93;;;2.73;;
21593;SDS011;10959;51.328;7.322;2022-10-01T04:39:45;2.43;;;1.97;;
21593;SDS011;10959;51.328;7.322;2022-10-01T04:42:12;2.13;;;1.70;;
21593;SDS011;10959;51.328;7.322;2022-10-01T04:44:39;2.10;;;1.90;;
21593;SDS011;10959;51.328;7.322;2022-10-01T04:47:07;1.70;;;1.60;;
21593;SDS011;10959;51.328;7.322;2022-10-01T04:49:34;1.80;;;1.70;;
21593;SDS011;10959;51.328;7.322;2022-10-01T04:52:01;1.53;;;1.43;;
21593;SDS011;10959;51.328;7.322;2022-10-01T04:54:28;1.50;;;1.40;;
21593;SDS011;10959;51.328;7.322;2022-10-01T04:56:55;1.40;;;1.10;;
21593;SDS011;10959;51.328;7.322;2022-10-01T04:59:22;1.43;;;1.20;;
21593;SDS011;10959;51.328;7.322;2022-10-01T05:01:49;1.30;;;1.20;;
21593;SDS011;10959;51.328;7.322;2022-10-01T05:04:17;1.57;;;1.30;;
21593;SDS011;10959;51.328;7.322;2022-10-01T05:06:44;1.00;;;0.90;;
21593;SDS011;10959;51.328;7.322;2022-10-01T05:09:10;1.40;;;1.30;;
21593;SDS011;10959;51.328;7.322;2022-10-01T05:11:37;2.13;;;1.20;;
21593;SDS011;10959;51.328;7.322;2022-10-01T05:14:04;1.40;;;1.17;;
21593;SDS011;10959;51.328;7.322;2022-10-01T05:16:30;1.83;;;1.30;;
21593;SDS011;10959;51.328;7.322;2022-10-01T05:18:57;1.60;;;1.20;;
21593;SDS011;10959;51.328;7.322;2022-10-01T05:21:25;1.70;;;1.50;;
21593;SDS011;10959;51.328;7.322;2022-10-01T05:23:52;1.40;;;1.13;;
21593;SDS011;10959;51.328;7.322;2022-10-01T05:26:19;1.07;;;1.00;;
21593;SDS011;10959;51.328;7.322;2022-10-01T05:28:45;2.10;;;1.10;;
21593;SDS011;10959;51.328;7.322;2022-10-01T05:31:12;1.10;;;1.00;;
21593;SDS011;10959;51.328;7.322;2022-10-01T05:33:40;2.80;;;0.90;;
21593;SDS011;10959;51.328;7.322;2022-10-01T05:36:06;1.60;;;1.10;;
21593;SDS011;10959;51.328;7.322;2022-10-01T05:38:34;1.30;;;1.10;;
21593;SDS011;10959;51.328;7.322;2022-10-01T05:41:01;1.43;;;1.00;;
21593;SDS011;10959;51.328;7.322;2022-10-01T05:43:27;2.37;;;0.93;;
21593;SDS011;10959;51.328;7.322;2022-10-01T05:45:54;1.00;;;0.90;;
21593;SDS011;10959;51.328;7.322;2022-10-01T05:48:24;1.03;;;0.93;;
21593;SDS011;10959;51.328;7.322;2022-10-01T05:50:50;1.00;;;0.90;;
21593;SDS011;10959;51.328;7.322;2022-10-01T05:53:18;1.00;;;0.90;;
21593;SDS011;10959;51.328;7.322;2022-10-01T05:55:46;1.50;;;0.80;;
21593;SDS011;10959;51.328;7.322;2022-10-01T05:58:13;0.90;;;0.70;;
21593;SDS011;10959;51.328;7.322;2022-10-01T06:00:40;1.13;;;0.40;;
21593;SDS011;10959;51.328;7.322;2022-10-01T06:03:08;0.80;;;0.70;;
21593;SDS011;10959;51.328;7.322;2022-10-01T06:05:37;1.33;;;0.50;;
21593;SDS011;10959;51.328;7.322;2022-10-01T06:08:04;0.30;;;0.30;;
21593;SDS011;10959;51.328;7.322;2022-10-01T06:10:32;0.40;;;0.40;;
21593;SDS011;10959;51.328;7.322;2022-10-01T06:13:02;0.40;;;0.40;;
21593;SDS011;10959;51.328;7.322;2022-10-01T06:15:31;1.60;;;0.40;;
21593;SDS011;10959;51.328;7.322;2022-10-01T06:18:01;0.30;;;0.30;;
21593;SDS011;10959;51.328;7.322;2022-10-01T06:20:28;0.70;;;0.50;;
21593;SDS011;10959;51.328;7.322;2022-10-01T06:22:55;0.50;;;0.40;;
21593;SDS011;10959;51.328;7.322;2022-10-01T06:25:22;0.70;;;0.30;;
21593;SDS011;10959;51.328;7.322;2022-10-01T06:27:52;0.43;;;0.20;;
21593;SDS011;10959;51.328;7.322;2022-10-01T06:30:23;0.30;;;0.30;;
21593;SDS011;10959;51.328;7.322;2022-10-01T06:32:51;1.43;;;0.40;;
21593;SDS011;10959;51.328;7.322;2022-10-01T06:35:18;0.50;;;0.30;;
21593;SDS011;10959;51.328;7.322;2022-10-01T06:37:44;0.23;;;0.23;;
21593;SDS011;10959;51.328;7.322;2022-10-01T06:40:11;0.37;;;0.30;;
21593;SDS011;10959;51.328;7.322;2022-10-01T06:42:38;0.50;;;0.30;;
21593;SDS011;10959;51.328;7.322;2022-10-01T06:45:05;0.70;;;0.50;;
21593;SDS011;10959;51.328;7.322;2022-10-01T06:47:34;0.40;;;0.40;;
21593;SDS011;10959;51.328;7.322;2022-10-01T06:50:01;0.80;;;0.53;;
21593;SDS011;10959;51.328;7.322;2022-10-01T06:52:28;1.87;;;1.07;;
21593;SDS011;10959;51.328;7.322;2022-10-01T06:55:12;0.93;;;0.73;;
21593;SDS011;10959;51.328;7.322;2022-10-01T06:57:39;0.50;;;0.40;;
21593;SDS011;10959;51.328;7.322;2022-10-01T07:00:06;0.33;;;0.33;;
21593;SDS011;10959;51.328;7.322;2022-10-01T07:02:34;0.73;;;0.57;;
21593;SDS011;10959;51.328;7.322;2022-10-01T07:05:01;2.33;;;0.80;;
21593;SDS011;10959;51.328;7.322;2022-10-01T07:07:28;0.33;;;0.33;;
21593;SDS011;10959;51.328;7.322;2022-10-01T07:09:55;0.50;;;0.50;;
21593;SDS011;10959;51.328;7.322;2022-10-01T07:12:22;0.40;;;0.40;;
21593;SDS011;10959;51.328;7.322;2022-10-01T07:14:49;0.30;;;0.30;;
21593;SDS011;10959;51.328;7.322;2022-10-01T07:17:15;0.83;;;0.50;;
21593;SDS011;10959;51.328;7.322;2022-10-01T07:19:43;0.40;;;0.30;;
21593;SDS011;10959;51.328;7.322;2022-10-01T07:22:10;0.80;;;0.70;;
21593;SDS011;10959;51.328;7.322;2022-10-01T07:24:36;0.50;;;0.50;;
21593;SDS011;10959;51.328;7.322;2022-10-01T07:27:03;0.70;;;0.67;;
21593;SDS011;10959;51.328;7.322;2022-10-01T07:29:30;0.70;;;0.70;;
21593;SDS011;10959;51.328;7.322;2022-10-01T07:31:56;0.70;;;0.60;;
21593;SDS011;10959;51.328;7.322;2022-10-01T07:34:24;1.57;;;0.80;;
21593;SDS011;10959;51.328;7.322;2022-10-01T07:36:52;0.63;;;0.63;;
21593;SDS011;10959;51.328;7.322;2022-10-01T07:39:20;0.97;;;0.90;;
21593;SDS011;10959;51.328;7.322;2022-10-01T07:41:46;0.70;;;0.60;;
21593;SDS011;10959;51.328;7.322;2022-10-01T07:44:15;1.60;;;0.60;;
21593;SDS011;10959;51.328;7.322;2022-10-01T07:46:41;0.80;;;0.73;;
21593;SDS011;10959;51.328;7.322;2022-10-01T07:49:08;1.10;;;0.80;;
21593;SDS011;10959;51.328;7.322;2022-10-01T07:51:35;0.80;;;0.80;;
21593;SDS011;10959;51.328;7.322;2022-10-01T07:54:03;1.50;;;1.10;;
21593;SDS011;10959;51.328;7.322;2022-10-01T07:56:30;2.03;;;1.20;;
21593;SDS011;10959;51.328;7.322;2022-10-01T07:58:57;1.90;;;1.80;;
21593;SDS011;10959;51.328;7.322;2022-10-01T08:01:24;11.40;;;10.23;;
21593;SDS011;10959;51.328;7.322;2022-10-01T08:03:51;9.27;;;8.37;;
21593;SDS011;10959;51.328;7.322;2022-10-01T08:06:19;2.33;;;2.13;;
21593;SDS011;10959;51.328;7.322;2022-10-01T08:08:46;3.43;;;1.00;;
21593;SDS011;10959;51.328;7.322;2022-10-01T08:11:14;1.63;;;1.13;;
21593;SDS011;10959;51.328;7.322;2022-10-01T08:13:42;1.67;;;1.40;;
21593;SDS011;10959;51.328;7.322;2022-10-01T08:16:10;1.57;;;1.47;;
21593;SDS011;10959;51.328;7.322;2022-10-01T08:18:37;1.20;;;1.10;;
21593;SDS011;10959;51.328;7.322;2022-10-01T08:21:05;1.87;;;1.50;;
21593;SDS011;10959;51.328;7.322;2022-10-01T08:23:32;1.50;;;1.40;;
21593;SDS011;10959;51.328;7.322;2022-10-01T08:26:03;1.93;;;1.40;;
21593;SDS011;10959;51.328;7.322;2022-10-01T08:31:03;2.30;;;0.83;;
21593;SDS011;10959;51.328;7.322;2022-10-01T08:33:32;1.10;;;1.10;;
21593;SDS011;10959;51.328;7.322;2022-10-01T08:35:59;1.17;;;1.07;;
21593;SDS011;10959;51.328;7.322;2022-10-01T08:38:26;1.73;;;1.30;;
21593;SDS011;10959;51.328;7.322;2022-10-01T08:40:53;1.83;;;1.73;;
21593;SDS011;10959;51.328;7.322;2022-10-01T08:43:30;1.60;;;1.50;;
21593;SDS011;10959;51.328;7.322;2022-10-01T08:46:02;1.30;;;1.20;;
21593;SDS011;10959;51.328;7.322;2022-10-01T08:48:40;2.53;;;1.80;;
21593;SDS011;10959;51.328;7.322;2022-10-01T08:51:16;1.63;;;1.53;;
21593;SDS011;10959;51.328;7.322;2022-10-01T08:53:51;1.77;;;1.67;;
21593;SDS011;10959;51.328;7.322;2022-10-01T08:56:23;2.60;;;1.83;;
21593;SDS011;10959;51.328;7.322;2022-10-01T08:58:55;2.10;;;2.00;;
21593;SDS011;10959;51.328;7.322;2022-10-01T09:01:25;2.00;;;1.90;;
21593;SDS011;10959;51.328;7.322;2022-10-01T09:03:53;1.80;;;1.70;;
21593;SDS011;10959;51.328;7.322;2022-10-01T09:06:21;3.47;;;2.40;;
21593;SDS011;10959;51.328;7.322;2022-10-01T09:08:56;2.10;;;1.90;;
21593;SDS011;10959;51.328;7.322;2022-10-01T09:11:43;2.07;;;1.90;;
21593;SDS011;10959;51.328;7.322;2022-10-01T09:14:22;2.83;;;2.63;;
21593;SDS011;10959;51.328;7.322;2022-10-01T09:17:01;3.47;;;2.67;;
21593;SDS011;10959;51.328;7.322;2022-10-01T09:19:49;2.77;;;2.57;;
21593;SDS011;10959;51.328;7.322;2022-10-01T09:22:26;3.20;;;2.47;;
21593;SDS011;10959;51.328;7.322;2022-10-01T09:25:00;5.20;;;3.60;;
21593;SDS011;10959;51.328;7.322;2022-10-01T09:27:36;3.47;;;3.27;;
21593;SDS011;10959;51.328;7.322;2022-10-01T09:30:04;4.10;;;3.40;;
21593;SDS011;10959;51.328;7.322;2022-10-01T09:32:35;3.20;;;2.90;;
21593;SDS011;10959;51.328;7.322;2022-10-01T09:35:11;3.10;;;2.90;;
21593;SDS011;10959;51.328;7.322;2022-10-01T09:37:47;4.07;;;2.80;;
21593;SDS011;10959;51.328;7.322;2022-10-01T09:40:20;4.50;;;2.70;;
21593;SDS011;10959;51.328;7.322;2022-10-01T09:42:54;3.20;;;2.90;;
21593;SDS011;10959;51.328;7.322;2022-10-01T09:45:21;2.63;;;2.43;;
21593;SDS011;10959;51.328;7.322;2022-10-01T09:47:52;3.70;;;3.40;;
21593;SDS011;10959;51.328;7.322;2022-10-01T09:50:24;3.37;;;2.80;;
21593;SDS011;10959;51.328;7.322;2022-10-01T09:52:58;3.43;;;2.70;;
21593;SDS011;10959;51.328;7.322;2022-10-01T09:55:27;3.90;;;3.00;;
21593;SDS011;10959;51.328;7.322;2022-10-01T09:57:59;4.17;;;3.77;;
21593;SDS011;10959;51.328;7.322;2022-10-01T10:00:29;4.17;;;3.80;;
21593;SDS011;10959;51.328;7.322;2022-10-01T10:02:58;3.77;;;3.40;;
21593;SDS011;10959;51.328;7.322;2022-10-01T10:05:26;4.53;;;3.80;;
21593;SDS011;10959;51.328;7.322;2022-10-01T10:07:54;3.87;;;3.53;;
21593;SDS011;10959;51.328;7.322;2022-10-01T10:10:25;4.13;;;3.83;;
21593;SDS011;10959;51.328;7.322;2022-10-01T10:12:56;4.10;;;3.80;;
21593;SDS011;10959;51.328;7.322;2022-10-01T10:15:24;3.23;;;2.93;;
21593;SDS011;10959;51.328;7.322;2022-10-01T10:17:51;4.10;;;3.70;;
21593;SDS011;10959;51.328;7.322;2022-10-01T10:20:24;3.93;;;3.53;;
21593;SDS011;10959;51.328;7.322;2022-10-01T10:23:04;3.97;;;3.57;;
21593;SDS011;10959;51.328;7.322;2022-10-01T10:25:32;3.43;;;3.13;;
21593;SDS011;10959;51.328;7.322;2022-10-01T10:27:59;4.33;;;3.57;;
21593;SDS011;10959;51.328;7.322;2022-10-01T10:30:26;3.73;;;3.13;;
21593;SDS011;10959;51.328;7.322;2022-10-01T10:33:00;3.07;;;2.87;;
21593;SDS011;10959;51.328;7.322;2022-10-01T10:35:30;2.37;;;2.00;;
21593;SDS011;10959;51.328;7.322;2022-10-01T10:37:56;3.53;;;2.50;;
21593;SDS011;10959;51.328;7.322;2022-10-01T10:40:24;2.57;;;2.23;;
21593;SDS011;10959;51.328;7.322;2022-10-01T10:42:52;3.47;;;2.40;;
21593;SDS011;10959;51.328;7.322;2022-10-01T10:45:21;3.90;;;2.40;;
21593;SDS011;10959;51.328;7.322;2022-10-01T10:47:56;5.97;;;2.70;;
21593;SDS011;10959;51.328;7.322;2022-10-01T10:50:27;2.97;;;1.90;;
21593;SDS011;10959;51.328;7.322;2022-10-01T10:52:59;4.77;;;2.20;;
21593;SDS011;10959;51.328;7.322;2022-10-01T10:55:36;3.03;;;1.60;;
21593;SDS011;10959;51.328;7.322;2022-10-01T10:58:08;5.70;;;1.53;;
21593;SDS011;10959;51.328;7.322;2022-10-01T11:00:42;2.63;;;1.30;;
21593;SDS011;10959;51.328;7.322;2022-10-01T11:03:10;2.70;;;1.50;;
21593;SDS011;10959;51.328;7.322;2022-10-01T11:05:42;2.73;;;1.43;;
21593;SDS011;10959;51.328;7.322;2022-10-01T11:08:10;4.63;;;1.43;;
21593;SDS011;10959;51.328;7.322;2022-10-01T11:10:45;4.00;;;1.47;;
21593;SDS011;10959;51.328;7.322;2022-10-01T11:13:25;3.80;;;1.10;;
21593;SDS011;10959;51.328;7.322;2022-10-01T11:16:11;3.03;;;1.43;;
21593;SDS011;10959;51.328;7.322;2022-10-01T11:18:53;4.07;;;1.63;;
21593;SDS011;10959;51.328;7.322;2022-10-01T11:21:34;3.37;;;1.30;;
21593;SDS011;10959;51.328;7.322;2022-10-01T11:24:22;3.97;;;1.77;;
21593;SDS011;10959;51.328;7.322;2022-10-01T11:27:04;3.97;;;1.93;;
21593;SDS011;10959;51.328;7.322;2022-10-01T11:29:38;3.27;;;1.43;;
21593;SDS011;10959;51.328;7.322;2022-10-01T11:32:17;2.73;;;1.60;;
21593;SDS011;10959;51.328;7.322;2022-10-01T11:34:54;5.87;;;1.63;;
21593;SDS011;10959;51.328;7.322;2022-10-01T11:37:39;4.03;;;2.17;;
21593;SDS011;10959;51.328;7.322;2022-10-01T11:40:13;5.53;;;2.10;;
21593;SDS011;10959;51.328;7.322;2022-10-01T11:42:45;6.73;;;2.27;;
21593;SDS011;10959;51.328;7.322;2022-10-01T11:45:16;5.03;;;2.00;;
21593;SDS011;10959;51.328;7.322;2022-10-01T11:47:47;6.70;;;2.60;;
21593;SDS011;10959;51.328;7.322;2022-10-01T11:50:17;5.57;;;2.53;;
21593;SDS011;10959;51.328;7.322;2022-10-01T11:52:49;6.47;;;2.37;;
21593;SDS011;10959;51.328;7.322;2022-10-01T11:55:19;3.90;;;1.93;;
21593;SDS011;10959;51.328;7.322;2022-10-01T11:58:11;2.67;;;2.17;;
21593;SDS011;10959;51.328;7.322;2022-10-01T12:01:01;5.23;;;2.20;;
21593;SDS011;10959;51.328;7.322;2022-10-01T12:03:31;2.97;;;2.20;;
21593;SDS011;10959;51.328;7.322;2022-10-01T12:06:04;6.03;;;2.20;;
21593;SDS011;10959;51.328;7.322;2022-10-01T12:08:40;6.53;;;2.67;;
21593;SDS011;10959;51.328;7.322;2022-10-01T12:11:14;4.73;;;2.47;;
21593;SDS011;10959;51.328;7.322;2022-10-01T12:13:46;3.63;;;2.30;;
21593;SDS011;10959;51.328;7.322;2022-10-01T12:16:19;4.87;;;2.17;;
21593;SDS011;10959;51.328;7.322;2022-10-01T12:18:56;5.00;;;1.97;;
21593;SDS011;10959;51.328;7.322;2022-10-01T12:21:28;2.70;;;1.57;;
21593;SDS011;10959;51.328;7.322;2022-10-01T12:24:02;6.93;;;2.40;;
21593;SDS011;10959;51.328;7.322;2022-10-01T12:26:35;6.20;;;2.60;;
21593;SDS011;10959;51.328;7.322;2022-10-01T12:29:10;5.23;;;2.60;;
21593;SDS011;10959;51.328;7.322;2022-10-01T12:31:43;5.67;;;2.30;;
21593;SDS011;10959;51.328;7.322;2022-10-01T12:34:16;5.47;;;2.20;;
21593;SDS011;10959;51.328;7.322;2022-10-01T12:36:58;4.03;;;1.80;;
21593;SDS011;10959;51.328;7.322;2022-10-01T12:39:41;6.03;;;2.00;;
21593;SDS011;10959;51.328;7.322;2022-10-01T12:42:20;4.07;;;2.17;;
21593;SDS011;10959;51.328;7.322;2022-10-01T12:45:03;5.57;;;2.07;;
21593;SDS011;10959;51.328;7.322;2022-10-01T12:47:45;8.23;;;2.43;;
21593;SDS011;10959;51.328;7.322;2022-10-01T12:50:21;6.93;;;2.60;;
21593;SDS011;10959;51.328;7.322;2022-10-01T12:53:02;6.93;;;2.47;;
21593;SDS011;10959;51.328;7.322;2022-10-01T12:55:46;5.23;;;2.50;;
21593;SDS011;10959;51.328;7.322;2022-10-01T12:58:22;6.23;;;2.60;;
21593;SDS011;10959;51.328;7.322;2022-10-01T13:01:02;8.00;;;2.60;;
21593;SDS011;10959;51.328;7.322;2022-10-01T13:03:41;6.20;;;2.50;;
21593;SDS011;10959;51.328;7.322;2022-10-01T13:06:26;4.00;;;1.83;;
21593;SDS011;10959;51.328;7.322;2022-10-01T13:09:02;5.17;;;1.90;;
21593;SDS011;10959;51.328;7.322;2022-10-01T13:11:45;5.17;;;1.83;;
21593;SDS011;10959;51.328;7.322;2022-10-01T13:14:23;4.33;;;1.70;;
21593;SDS011;10959;51.328;7.322;2022-10-01T13:16:52;9.20;;;2.00;;
21593;SDS011;10959;51.328;7.322;2022-10-01T13:19:25;3.47;;;1.60;;
21593;SDS011;10959;51.328;7.322;2022-10-01T13:22:04;4.83;;;1.73;;
21593;SDS011;10959;51.328;7.322;2022-10-01T13:24:39;6.17;;;1.70;;
21593;SDS011;10959;51.328;7.322;2022-10-01T13:27:15;4.17;;;1.47;;
21593;SDS011;10959;51.328;7.322;2022-10-01T13:29:50;5.10;;;1.97;;
21593;SDS011;10959;51.328;7.322;2022-10-01T13:32:25;5.80;;;1.90;;
21593;SDS011;10959;51.328;7.322;2022-10-01T13:34:53;9.70;;;2.03;;
21593;SDS011;10959;51.328;7.322;2022-10-01T13:37:30;6.83;;;2.17;;
21593;SDS011;10959;51.328;7.322;2022-10-01T13:39:59;4.83;;;1.90;;
21593;SDS011;10959;51.328;7.322;2022-10-01T13:42:29;5.60;;;1.97;;
21593;SDS011;10959;51.328;7.322;2022-10-01T13:45:03;6.63;;;1.93;;
21593;SDS011;10959;51.328;7.322;2022-10-01T13:47:32;5.00;;;1.50;;
21593;SDS011;10959;51.328;7.322;2022-10-01T13:50:03;3.87;;;1.70;;
21593;SDS011;10959;51.328;7.322;2022-10-01T13:52:32;4.53;;;1.83;;
21593;SDS011;10959;51.328;7.322;2022-10-01T13:55:00;8.20;;;2.23;;
21593;SDS011;10959;51.328;7.322;2022-10-01T13:57:30;7.10;;;1.83;;
21593;SDS011;10959;51.328;7.322;2022-10-01T14:00:00;6.13;;;1.90;;
21593;SDS011;10959;51.328;7.322;2022-10-01T14:02:31;8.40;;;2.30;;
21593;SDS011;10959;51.328;7.322;2022-10-01T14:07:54;8.43;;;2.00;;
21593;SDS011;10959;51.328;7.322;2022-10-01T14:10:28;5.13;;;1.93;;
21593;SDS011;10959;51.328;7.322;2022-10-01T14:13:00;3.90;;;1.60;;
21593;SDS011;10959;51.328;7.322;2022-10-01T14:15:46;6.47;;;2.27;;
21593;SDS011;10959;51.328;7.322;2022-10-01T14:18:31;6.77;;;1.53;;
21593;SDS011;10959;51.328;7.322;2022-10-01T14:21:05;4.40;;;1.70;;
21593;SDS011;10959;51.328;7.322;2022-10-01T14:23:43;4.97;;;1.63;;
21593;SDS011;10959;51.328;7.322;2022-10-01T14:26:16;5.73;;;1.90;;
21593;SDS011;10959;51.328;7.322;2022-10-01T14:31:46;4.33;;;1.53;;
21593;SDS011;10959;51.328;7.322;2022-10-01T14:34:24;7.23;;;1.90;;
21593;SDS011;10959;51.328;7.322;2022-10-01T14:37:04;8.63;;;1.87;;
21593;SDS011;10959;51.328;7.322;2022-10-01T14:39:32;4.03;;;1.60;;
21593;SDS011;10959;51.328;7.322;2022-10-01T14:42:05;5.40;;;1.80;;
21593;SDS011;10959;51.328;7.322;2022-10-01T14:44:35;4.53;;;1.40;;
21593;SDS011;10959;51.328;7.322;2022-10-01T14:47:12;4.73;;;1.80;;
21593;SDS011;10959;51.328;7.322;2022-10-01T14:49:41;6.63;;;2.07;;
21593;SDS011;10959;51.328;7.322;2022-10-01T14:52:13;5.37;;;1.50;;
21593;SDS011;10959;51.328;7.322;2022-10-01T14:54:46;7.00;;;2.00;;
21593;SDS011;10959;51.328;7.322;2022-10-01T14:57:17;5.93;;;1.93;;
21593;SDS011;10959;51.328;7.322;2022-10-01T14:59:51;5.67;;;1.50;;
21593;SDS011;10959;51.328;7.322;2022-10-01T15:02:21;5.87;;;2.07;;
21593;SDS011;10959;51.328;7.322;2022-10-01T15:04:50;8.73;;;1.70;;
21593;SDS011;10959;51.328;7.322;2022-10-01T15:07:18;8.60;;;2.37;;
21593;SDS011;10959;51.328;7.322;2022-10-01T15:09:45;4.70;;;1.80;;
21593;SDS011;10959;51.328;7.322;2022-10-01T15:12:13;7.60;;;1.97;;
21593;SDS011;10959;51.328;7.322;2022-10-01T15:14:41;4.93;;;2.13;;
21593;SDS011;10959;51.328;7.322;2022-10-01T15:17:11;5.70;;;2.00;;
21593;SDS011;10959;51.328;7.322;2022-10-01T15:19:45;8.73;;;2.33;;
21593;SDS011;10959;51.328;7.322;2022-10-01T15:22:16;6.77;;;2.63;;
21593;SDS011;10959;51.328;7.322;2022-10-01T15:24:47;5.43;;;2.47;;